createdAt,value
2023-03-11T00:01:10.262Z,5.20
2023-03-11T00:03:38.638Z,7.10
2023-03-11T00:06:07.766Z,5.50
2023-03-11T00:08:36.234Z,5.80
2023-03-11T00:11:09.411Z,5.00
2023-03-11T00:13:41.469Z,6.90
2023-03-11T00:16:10.122Z,3.90
2023-03-11T00:18:40.182Z,4.30
2023-03-11T00:21:17.337Z,6.90
2023-03-11T00:23:46.579Z,3.60
2023-03-11T00:26:15.962Z,3.50
2023-03-11T00:28:44.752Z,6.90
2023-03-11T00:31:19.975Z,5.20
2023-03-11T00:33:48.776Z,4.70
2023-03-11T00:36:31.681Z,6.40
2023-03-11T00:39:02.278Z,4.90
2023-03-11T00:41:31.014Z,6.10
2023-03-11T00:44:00.134Z,5.40
2023-03-11T00:46:30.212Z,7.40
2023-03-11T00:48:59.973Z,5.30
2023-03-11T00:51:29.489Z,5.20
2023-03-11T00:53:58.025Z,4.80
2023-03-11T00:56:27.941Z,3.50
2023-03-11T00:58:56.381Z,4.50
2023-03-11T01:01:24.954Z,5.30
2023-03-11T01:03:53.709Z,9.30
2023-03-11T01:06:23.417Z,6.60
2023-03-11T01:08:54.846Z,5.10
2023-03-11T01:11:23.563Z,4.80
2023-03-11T01:13:52.126Z,4.00
2023-03-11T01:16:21.614Z,3.70
2023-03-11T01:18:51.867Z,6.40
2023-03-11T01:21:20.629Z,6.20
2023-03-11T01:23:49.416Z,4.20
2023-03-11T01:26:17.917Z,4.40
2023-03-11T01:28:47.199Z,5.50
2023-03-11T01:31:16.103Z,4.60
2023-03-11T01:33:45.103Z,6.40
2023-03-11T01:36:13.774Z,5.70
2023-03-11T01:38:43.579Z,4.80
2023-03-11T01:41:12.794Z,4.50
2023-03-11T01:43:46.272Z,4.70
2023-03-11T01:46:34.001Z,6.40
2023-03-11T01:49:03.722Z,6.20
2023-03-11T01:51:42.112Z,6.80
2023-03-11T01:54:21.257Z,5.70
2023-03-11T01:56:49.784Z,4.50
2023-03-11T01:59:21.366Z,4.20
2023-03-11T02:02:02.842Z,6.10
2023-03-11T02:04:33.917Z,4.40
2023-03-11T02:07:03.831Z,4.30
2023-03-11T02:09:32.936Z,4.20
2023-03-11T02:12:02.989Z,4.70
2023-03-11T02:14:31.841Z,5.50
2023-03-11T02:17:04.836Z,4.70
2023-03-11T02:20:12.458Z,3.70
2023-03-11T02:22:41.932Z,3.70
2023-03-11T02:25:35.099Z,5.70
2023-03-11T02:28:08.650Z,4.50
2023-03-11T02:30:37.591Z,4.20
2023-03-11T02:33:07.618Z,3.80
2023-03-11T02:35:37.158Z,4.20
2023-03-11T02:38:06.106Z,6.90
2023-03-11T02:40:49.122Z,4.50
2023-03-11T02:43:23.723Z,5.30
2023-03-11T02:45:52.333Z,3.00
2023-03-11T02:48:24.702Z,4.30
2023-03-11T02:50:53.335Z,4.80
2023-03-11T02:53:22.489Z,5.00
2023-03-11T02:55:51.266Z,4.30
2023-03-11T02:58:19.749Z,5.50
2023-03-11T03:00:48.312Z,3.60
2023-03-11T03:03:17.421Z,3.80
2023-03-11T03:05:48.708Z,4.40
2023-03-11T03:08:19.404Z,6.00
2023-03-11T03:10:49.111Z,4.00
2023-03-11T03:13:17.809Z,3.80
2023-03-11T03:15:47.002Z,5.70
2023-03-11T03:18:16.809Z,4.60
2023-03-11T03:20:45.314Z,6.50
2023-03-11T03:23:15.302Z,8.90
2023-03-11T03:25:44.496Z,9.40
2023-03-11T03:28:13.904Z,6.60
2023-03-11T03:30:45.266Z,6.50
2023-03-11T03:33:15.575Z,7.20
2023-03-11T03:35:46.625Z,8.80
2023-03-11T03:38:22.296Z,7.30
2023-03-11T03:40:51.466Z,7.00
2023-03-11T03:43:21.582Z,7.90
2023-03-11T03:46:01.068Z,8.90
2023-03-11T03:48:32.913Z,6.90
2023-03-11T03:51:05.978Z,5.70
2023-03-11T03:53:35.276Z,8.00
2023-03-11T03:56:09.383Z,4.10
2023-03-11T03:58:38.811Z,8.80
2023-03-11T04:01:08.204Z,9.00
2023-03-11T04:03:39.268Z,6.40
2023-03-11T04:06:19.865Z,7.20
2023-03-11T04:08:53.080Z,5.90
2023-03-11T04:11:23.523Z,6.80
2023-03-11T04:13:53.429Z,5.40
2023-03-11T04:16:23.344Z,3.50
2023-03-11T04:18:53.881Z,4.00
2023-03-11T04:21:22.667Z,4.30
2023-03-11T04:23:53.396Z,4.20
2023-03-11T04:26:23.113Z,2.90
2023-03-11T04:28:51.806Z,6.30
2023-03-11T04:31:20.430Z,6.00
2023-03-11T04:33:49.876Z,3.20
2023-03-11T04:36:18.667Z,3.00
2023-03-11T04:38:47.378Z,4.50
2023-03-11T04:41:20.754Z,5.70
2023-03-11T04:43:49.425Z,3.10
2023-03-11T04:46:18.178Z,4.60
2023-03-11T04:48:47.212Z,5.10
2023-03-11T04:51:15.813Z,5.30
2023-03-11T04:53:44.713Z,6.20
2023-03-11T04:56:13.877Z,4.20
2023-03-11T04:58:42.563Z,7.20
2023-03-11T05:01:11.609Z,2.70
2023-03-11T05:03:40.361Z,6.20
2023-03-11T05:06:12.916Z,7.20
2023-03-11T05:08:42.044Z,8.60
2023-03-11T05:11:11.012Z,4.60
2023-03-11T05:13:42.670Z,3.80
2023-03-11T05:16:12.041Z,3.30
2023-03-11T05:18:40.757Z,2.80
2023-03-11T05:21:09.552Z,4.50
2023-03-11T05:23:41.535Z,3.20
2023-03-11T05:26:10.351Z,4.70
2023-03-11T05:28:40.017Z,4.80
2023-03-11T05:31:10.383Z,4.40
2023-03-11T05:33:46.402Z,3.90
2023-03-11T05:36:15.493Z,3.50
2023-03-11T05:38:45.186Z,5.50
2023-03-11T05:41:15.719Z,5.20
2023-03-11T05:43:45.024Z,5.50
2023-03-11T05:46:15.365Z,11.00
2023-03-11T05:48:44.159Z,4.70
2023-03-11T05:51:15.591Z,3.30
2023-03-11T05:53:48.895Z,3.90
2023-03-11T05:56:22.218Z,6.20
2023-03-11T05:58:51.174Z,3.90
2023-03-11T06:01:21.075Z,5.40
2023-03-11T06:03:57.660Z,5.60
2023-03-11T06:06:28.071Z,4.00
2023-03-11T06:08:57.275Z,5.00
2023-03-11T06:11:28.340Z,2.90
2023-03-11T06:13:58.530Z,4.40
2023-03-11T06:16:28.391Z,5.80
2023-03-11T06:19:01.011Z,5.50
2023-03-11T06:21:32.169Z,4.40
2023-03-11T06:24:01.276Z,4.50
2023-03-11T06:26:35.120Z,4.50
2023-03-11T06:29:04.475Z,5.20
2023-03-11T06:31:33.699Z,4.10
2023-03-11T06:34:06.870Z,4.60
2023-03-11T06:36:35.756Z,4.90
2023-03-11T06:39:10.175Z,6.20
2023-03-11T06:41:39.383Z,5.40
2023-03-11T06:44:10.586Z,5.10
2023-03-11T06:46:39.702Z,5.70
2023-03-11T06:49:08.204Z,7.50
2023-03-11T06:51:38.098Z,6.50
2023-03-11T06:54:07.399Z,4.60
2023-03-11T06:59:09.786Z,7.30
2023-03-11T07:01:38.409Z,4.40
2023-03-11T07:04:09.941Z,4.30
2023-03-11T07:06:39.635Z,4.20
2023-03-11T07:09:12.930Z,4.00
2023-03-11T07:11:44.697Z,2.60
2023-03-11T07:14:16.769Z,3.90
2023-03-11T07:16:48.458Z,2.50
2023-03-11T07:19:23.544Z,4.70
2023-03-11T07:21:51.887Z,4.00
2023-03-11T07:24:21.016Z,5.40
2023-03-11T07:26:50.215Z,5.90
2023-03-11T07:29:20.282Z,12.30
2023-03-11T07:31:49.398Z,5.70
2023-03-11T07:34:18.979Z,7.30
2023-03-11T07:36:48.884Z,6.10
2023-03-11T07:39:18.844Z,3.50
2023-03-11T07:41:47.453Z,3.90
2023-03-11T07:44:16.146Z,5.10
2023-03-11T07:46:45.128Z,7.70
2023-03-11T07:49:14.054Z,4.70
2023-03-11T07:51:45.100Z,3.70
2023-03-11T07:54:13.890Z,6.10
2023-03-11T07:56:44.582Z,4.60
2023-03-11T07:59:13.085Z,5.40
2023-03-11T08:01:47.514Z,4.60
2023-03-11T08:04:17.264Z,4.80
2023-03-11T08:07:11.086Z,8.00
2023-03-11T08:09:39.760Z,4.60
2023-03-11T08:12:12.430Z,4.50
2023-03-11T08:14:41.340Z,6.50
2023-03-11T08:17:12.466Z,10.30
2023-03-11T08:19:41.260Z,5.90
2023-03-11T08:22:09.834Z,6.30
2023-03-11T08:24:40.374Z,5.10
2023-03-11T08:27:10.084Z,4.10
2023-03-11T08:29:39.910Z,8.60
2023-03-11T08:32:08.880Z,8.30
2023-03-11T08:34:39.516Z,9.40
2023-03-11T08:37:08.010Z,7.10
2023-03-11T08:39:36.577Z,7.10
2023-03-11T08:42:05.670Z,5.00
2023-03-11T08:44:34.162Z,8.10
2023-03-11T08:47:04.085Z,5.20
2023-03-11T08:49:33.511Z,4.70
2023-03-11T08:52:02.072Z,5.00
2023-03-11T08:54:33.299Z,4.50
2023-03-11T08:57:03.978Z,4.80
2023-03-11T08:59:32.955Z,5.60
2023-03-11T09:02:02.644Z,5.30
2023-03-11T09:04:31.121Z,5.00
2023-03-11T09:07:05.962Z,6.40
2023-03-11T09:09:35.749Z,5.10
2023-03-11T09:12:04.955Z,5.00
2023-03-11T09:14:39.574Z,4.90
2023-03-11T09:17:08.784Z,5.10
2023-03-11T09:19:37.149Z,5.10
2023-03-11T09:29:43.035Z,6.00
2023-03-11T09:32:13.132Z,8.30
2023-03-11T09:34:42.068Z,8.70
2023-03-11T09:37:10.750Z,11.80
2023-03-11T09:39:39.455Z,9.80
2023-03-11T09:42:42.734Z,7.90
2023-03-11T09:45:20.022Z,6.30
2023-03-11T09:48:25.877Z,7.70
2023-03-11T09:50:58.482Z,7.00
2023-03-11T09:53:45.620Z,6.80
2023-03-11T09:56:19.102Z,8.00
2023-03-11T09:58:49.417Z,7.70
2023-03-11T10:01:37.946Z,8.30
2023-03-11T10:04:57.364Z,10.90
2023-03-11T10:07:47.929Z,9.70
2023-03-11T10:10:16.506Z,10.40
2023-03-11T10:12:46.112Z,10.30
2023-03-11T10:15:19.811Z,8.60
2023-03-11T10:17:58.857Z,11.60
2023-03-11T10:20:47.190Z,10.80
2023-03-11T10:23:49.123Z,13.80
2023-03-11T10:26:31.662Z,7.70
2023-03-11T10:29:08.540Z,10.60
2023-03-11T10:31:40.206Z,13.90
2023-03-11T10:34:17.417Z,13.20
2023-03-11T10:37:14.849Z,13.60
2023-03-11T10:39:49.671Z,10.80
2023-03-11T10:42:21.707Z,12.20
2023-03-11T10:44:52.448Z,16.00
2023-03-11T10:47:25.697Z,14.30
2023-03-11T10:49:53.914Z,12.20
2023-03-11T10:52:26.744Z,12.50
2023-03-11T10:55:03.304Z,13.10
2023-03-11T10:57:34.714Z,16.10
2023-03-11T11:00:17.307Z,15.70
2023-03-11T11:02:58.352Z,15.90
2023-03-11T11:05:34.192Z,14.80
2023-03-11T11:08:14.265Z,13.80
2023-03-11T11:10:56.952Z,15.90
2023-03-11T11:13:35.787Z,16.30
2023-03-11T11:16:06.484Z,13.20
2023-03-11T11:18:49.167Z,13.80
2023-03-11T11:21:28.049Z,13.50
2023-03-11T11:24:21.003Z,11.70
2023-03-11T11:27:11.725Z,14.90
2023-03-11T11:29:41.860Z,14.40
2023-03-11T11:32:17.631Z,10.30
2023-03-11T11:34:59.865Z,14.00
2023-03-11T11:37:35.220Z,15.40
2023-03-11T11:40:17.544Z,16.90
2023-03-11T11:42:59.925Z,12.00
2023-03-11T11:45:38.923Z,8.30
2023-03-11T11:48:32.161Z,12.50
2023-03-11T11:51:01.628Z,10.30
2023-03-11T11:53:35.420Z,10.00
2023-03-11T11:56:04.550Z,12.50
2023-03-11T11:58:34.236Z,10.80
2023-03-11T12:01:04.551Z,10.60
2023-03-11T12:04:05.629Z,7.80
2023-03-11T12:07:22.349Z,12.10
2023-03-11T12:10:23.443Z,12.40
2023-03-11T12:13:33.200Z,10.60
2023-03-11T12:16:10.571Z,10.50
2023-03-11T12:18:47.061Z,10.10
2023-03-11T12:21:29.453Z,9.30
2023-03-11T12:24:17.012Z,10.90
2023-03-11T12:26:46.911Z,9.40
2023-03-11T12:29:26.145Z,11.90
2023-03-11T12:31:55.892Z,11.20
2023-03-11T12:34:27.766Z,11.50
2023-03-11T12:36:58.542Z,12.10
2023-03-11T12:39:31.085Z,10.70
2023-03-11T12:42:11.908Z,16.10
2023-03-11T12:44:41.736Z,10.80
2023-03-11T12:47:18.312Z,14.20
2023-03-11T12:49:49.010Z,9.10
2023-03-11T12:52:19.250Z,10.10
2023-03-11T12:55:10.452Z,14.50
2023-03-11T12:57:46.723Z,12.50
2023-03-11T13:00:30.766Z,11.60
2023-03-11T13:03:18.236Z,10.60
2023-03-11T13:06:24.553Z,10.30
2023-03-11T13:08:57.639Z,14.10
2023-03-11T13:11:33.098Z,10.50
2023-03-11T13:14:30.042Z,11.70
2023-03-11T13:17:23.037Z,13.20
2023-03-11T13:19:54.036Z,12.30
2023-03-11T13:22:44.732Z,10.20
2023-03-11T13:25:26.833Z,12.20
2023-03-11T13:28:04.024Z,11.70
2023-03-11T13:30:34.797Z,12.60
2023-03-11T13:33:24.163Z,7.40
2023-03-11T13:36:01.110Z,11.60
2023-03-11T13:39:01.240Z,9.90
2023-03-11T13:41:35.276Z,11.40
2023-03-11T13:44:15.394Z,13.30
2023-03-11T13:46:49.936Z,16.00
2023-03-11T13:49:34.205Z,44.80
2023-03-11T13:52:09.206Z,41.60
2023-03-11T13:54:42.861Z,64.00
2023-03-11T13:57:40.676Z,63.10
2023-03-11T14:00:17.903Z,28.20
2023-03-11T14:02:51.385Z,22.30
2023-03-11T14:05:25.060Z,15.00
2023-03-11T14:07:53.967Z,13.20
2023-03-11T14:10:28.473Z,14.40
2023-03-11T14:13:18.054Z,43.40
2023-03-11T14:15:51.968Z,74.40
2023-03-11T14:18:43.164Z,41.00
2023-03-11T14:21:22.457Z,22.10
2023-03-11T14:23:52.741Z,15.80
2023-03-11T14:26:27.046Z,17.30
2023-03-11T14:28:59.056Z,108.70
2023-03-11T14:31:34.436Z,38.90
2023-03-11T14:34:13.486Z,21.80
2023-03-11T14:36:54.474Z,25.40
2023-03-11T14:39:34.395Z,10.90
2023-03-11T14:42:19.113Z,13.70
2023-03-11T14:45:11.315Z,9.00
2023-03-11T14:47:40.934Z,3.90
2023-03-11T14:50:18.087Z,4.60
2023-03-11T14:53:14.218Z,3.60
2023-03-11T14:55:55.805Z,5.40
2023-03-11T14:58:44.256Z,3.90
2023-03-11T15:01:18.192Z,4.60
2023-03-11T15:03:50.683Z,3.20
2023-03-11T15:06:20.751Z,3.80
2023-03-11T15:09:12.093Z,2.90
2023-03-11T15:12:00.997Z,2.70
2023-03-11T15:14:32.794Z,3.80
2023-03-11T15:17:34.634Z,5.40
2023-03-11T15:20:22.869Z,3.20
2023-03-11T15:22:58.540Z,3.90
2023-03-11T15:25:27.743Z,5.50
2023-03-11T15:27:56.423Z,2.90
2023-03-11T15:30:27.032Z,3.20
2023-03-11T15:32:56.117Z,3.60
2023-03-11T15:35:25.965Z,3.10
2023-03-11T15:38:13.301Z,3.60
2023-03-11T15:40:45.694Z,3.30
2023-03-11T15:43:15.162Z,3.70
2023-03-11T15:45:44.262Z,3.20
2023-03-11T15:48:13.246Z,4.70
2023-03-11T15:50:53.918Z,2.30
2023-03-11T15:53:25.580Z,3.50
2023-03-11T15:55:54.872Z,4.20
2023-03-11T15:58:23.355Z,4.20
2023-03-11T16:00:53.961Z,3.50
2023-03-11T16:03:22.985Z,2.00
2023-03-11T16:05:53.708Z,3.10
2023-03-11T16:08:25.301Z,4.00
2023-03-11T16:10:53.844Z,2.90
2023-03-11T16:13:25.304Z,3.90
2023-03-11T16:15:54.061Z,3.00
2023-03-11T16:18:22.771Z,3.10
2023-03-11T16:20:53.609Z,4.60
2023-03-11T16:23:26.918Z,3.50
2023-03-11T16:26:00.127Z,4.40
2023-03-11T16:28:29.809Z,3.10
2023-03-11T16:30:58.526Z,3.90
2023-03-11T16:33:27.106Z,4.00
2023-03-11T16:35:55.888Z,3.60
2023-03-11T16:38:24.645Z,2.80
2023-03-11T16:41:01.045Z,2.70
2023-03-11T16:43:30.046Z,4.50
2023-03-11T16:45:58.818Z,3.50
2023-03-11T16:48:28.020Z,3.20
2023-03-11T16:50:56.778Z,2.50
2023-03-11T16:53:26.384Z,3.20
2023-03-11T16:56:01.746Z,2.60
2023-03-11T16:58:30.938Z,2.40
2023-03-11T17:01:00.162Z,2.50
2023-03-11T17:03:34.460Z,2.30
2023-03-11T17:06:09.721Z,2.30
2023-03-11T17:08:39.930Z,2.30
2023-03-11T17:11:18.499Z,2.30
2023-03-11T17:13:47.321Z,3.10
2023-03-11T17:16:15.936Z,2.20
2023-03-11T17:18:44.689Z,1.10
2023-03-11T17:21:14.693Z,2.30
2023-03-11T17:23:43.104Z,1.80
2023-03-11T17:26:17.096Z,1.30
2023-03-11T17:28:46.390Z,1.90
2023-03-11T17:31:15.776Z,1.60
2023-03-11T17:33:44.520Z,2.70
2023-03-11T17:36:16.219Z,1.90
2023-03-11T17:38:46.803Z,1.80
2023-03-11T17:41:17.425Z,2.20
2023-03-11T17:43:45.884Z,2.00
2023-03-11T17:46:17.179Z,1.20
2023-03-11T17:48:47.153Z,1.20
2023-03-11T17:51:18.794Z,1.10
2023-03-11T17:53:49.730Z,1.80
2023-03-11T18:04:01.455Z,2.50
2023-03-11T18:06:30.664Z,3.50
2023-03-11T18:09:00.989Z,3.20
2023-03-11T18:11:31.931Z,1.80
2023-03-11T18:14:00.508Z,1.90
2023-03-11T18:16:29.948Z,1.80
2023-03-11T18:18:58.709Z,2.50
2023-03-11T18:21:29.555Z,1.60
2023-03-11T18:24:00.077Z,2.70
2023-03-11T18:26:31.133Z,2.80
2023-03-11T18:29:00.831Z,2.00
2023-03-11T18:31:36.497Z,2.20
2023-03-11T18:34:12.435Z,1.40
2023-03-11T18:36:41.515Z,2.00
2023-03-11T18:39:12.859Z,2.50
2023-03-11T18:41:42.931Z,1.20
2023-03-11T18:44:16.479Z,1.30
2023-03-11T18:46:46.294Z,1.10
2023-03-11T18:49:16.102Z,1.40
2023-03-11T18:51:44.482Z,1.50
2023-03-11T18:54:13.113Z,1.20
2023-03-11T18:56:41.560Z,1.70
2023-03-11T18:59:12.480Z,1.60
2023-03-11T19:01:41.176Z,1.10
2023-03-11T19:04:10.085Z,1.60
2023-03-11T19:06:38.764Z,2.30
2023-03-11T19:09:07.307Z,3.20
2023-03-11T19:11:36.325Z,2.80
2023-03-11T19:14:06.451Z,3.10
2023-03-11T19:16:34.989Z,1.90
2023-03-11T19:19:05.972Z,2.70
2023-03-11T19:21:35.777Z,2.60
2023-03-11T19:24:05.707Z,3.20
2023-03-11T19:26:44.791Z,3.30
2023-03-11T19:29:14.984Z,3.00
2023-03-11T19:31:46.508Z,3.30
2023-03-11T19:34:14.844Z,4.00
2023-03-11T19:36:43.387Z,3.00
2023-03-11T19:39:12.049Z,2.30
2023-03-11T19:41:41.817Z,3.00
2023-03-11T19:44:10.349Z,4.10
2023-03-11T19:46:41.893Z,5.50
2023-03-11T19:49:10.496Z,2.60
2023-03-11T19:51:49.688Z,2.30
2023-03-11T19:54:19.527Z,2.80
2023-03-11T19:56:50.470Z,3.20
2023-03-11T19:59:19.445Z,3.20
2023-03-11T20:01:48.291Z,3.00
2023-03-11T20:04:17.025Z,3.40
2023-03-11T20:06:45.882Z,5.20
2023-03-11T20:09:16.470Z,1.90
2023-03-11T20:11:49.733Z,2.20
2023-03-11T20:14:19.592Z,2.50
2023-03-11T20:16:48.283Z,2.10
2023-03-11T20:19:18.912Z,1.60
2023-03-11T20:21:47.768Z,2.80
2023-03-11T20:24:20.115Z,2.30
2023-03-11T20:26:51.195Z,1.70
2023-03-11T20:29:19.821Z,1.90
2023-03-11T20:31:48.396Z,1.60
2023-03-11T20:34:17.338Z,1.60
2023-03-11T20:36:49.301Z,1.20
2023-03-11T20:39:17.737Z,1.30
2023-03-11T20:41:46.345Z,1.90
2023-03-11T20:44:14.831Z,1.70
2023-03-11T20:46:44.375Z,1.90
2023-03-11T20:49:13.022Z,1.10
2023-03-11T20:51:44.167Z,1.10
2023-03-11T20:54:15.020Z,1.30
2023-03-11T20:56:43.693Z,1.50
2023-03-11T20:59:15.307Z,0.90
2023-03-11T21:01:44.887Z,1.00
2023-03-11T21:04:16.338Z,1.10
2023-03-11T21:06:50.252Z,2.10
2023-03-11T21:09:19.507Z,1.00
2023-03-11T21:11:47.901Z,1.30
2023-03-11T21:14:17.292Z,2.10
2023-03-11T21:16:46.188Z,0.90
2023-03-11T21:19:15.439Z,0.80
2023-03-11T21:21:48.249Z,0.70
2023-03-11T21:24:16.533Z,0.80
2023-03-11T21:26:46.464Z,0.50
2023-03-11T21:29:15.948Z,0.70
2023-03-11T21:31:44.703Z,0.60
2023-03-11T21:34:13.263Z,1.90
2023-03-11T21:45:41.850Z,1.90
2023-03-11T21:50:29.129Z,1.90
2023-03-11T21:52:57.673Z,1.00
2023-03-11T21:55:26.429Z,1.40
2023-03-11T21:57:55.529Z,1.00
2023-03-11T22:00:23.997Z,1.30
2023-03-11T22:02:52.651Z,1.10
2023-03-11T22:05:21.430Z,1.30
2023-03-11T22:09:53.752Z,3.10
2023-03-11T22:12:24.121Z,1.20
2023-03-11T22:14:52.755Z,1.80
2023-03-11T22:17:21.993Z,1.50
2023-03-11T22:19:50.805Z,1.30
2023-03-11T22:22:19.904Z,2.00
2023-03-11T22:24:48.728Z,0.70
2023-03-11T22:27:17.358Z,0.70
2023-03-11T22:29:46.148Z,1.40
2023-03-11T22:32:18.737Z,1.60
2023-03-11T22:34:47.414Z,1.40
2023-03-11T22:37:16.296Z,1.40
2023-03-11T22:39:45.228Z,1.20
2023-03-11T22:42:14.186Z,0.80
2023-03-11T22:44:42.570Z,0.90
2023-03-11T22:47:12.301Z,1.20
2023-03-11T22:49:40.957Z,0.90
2023-03-11T22:52:09.463Z,0.90
2023-03-11T22:54:38.433Z,1.80
2023-03-11T22:57:08.243Z,1.10
2023-03-11T22:59:37.129Z,1.30
2023-03-11T23:02:05.834Z,1.60
2023-03-11T23:04:35.021Z,2.10
2023-03-11T23:07:04.217Z,5.00
2023-03-11T23:09:32.809Z,3.30
2023-03-11T23:12:04.049Z,1.60
2023-03-11T23:14:44.019Z,1.80
2023-03-11T23:17:18.723Z,1.60
2023-03-11T23:19:47.847Z,1.70
2023-03-11T23:22:16.392Z,2.00
2023-03-11T23:24:46.104Z,2.00
2023-03-11T23:27:14.517Z,1.70
2023-03-11T23:29:47.926Z,1.80
2023-03-11T23:32:18.678Z,1.50
2023-03-11T23:34:47.603Z,2.10
2023-03-11T23:37:16.004Z,2.00
2023-03-11T23:39:46.918Z,2.30
2023-03-11T23:42:25.550Z,1.60
2023-03-11T23:44:57.755Z,1.30
2023-03-11T23:47:26.517Z,1.30
2023-03-11T23:49:55.184Z,4.80
2023-03-11T23:52:23.893Z,1.70
2023-03-11T23:54:52.451Z,1.90
2023-03-11T23:57:20.928Z,2.20
2023-03-11T23:59:49.512Z,1.50
